createdAt,value
2022-08-31T00:02:02.647Z,9.27
2022-08-31T00:04:32.958Z,9.90
2022-08-31T00:07:01.419Z,9.50
2022-08-31T00:09:31.166Z,9.48
2022-08-31T00:11:59.591Z,10.00
2022-08-31T00:14:28.748Z,9.98
2022-08-31T00:16:57.335Z,9.32
2022-08-31T00:19:25.938Z,8.82
2022-08-31T00:21:55.674Z,9.10
2022-08-31T00:24:24.029Z,9.55
2022-08-31T00:26:52.397Z,9.90
2022-08-31T00:29:20.702Z,9.32
2022-08-31T00:31:49.038Z,9.02
2022-08-31T00:34:17.461Z,9.48
2022-08-31T00:36:47.377Z,9.50
2022-08-31T00:39:17.042Z,10.60
2022-08-31T00:41:45.998Z,10.70
2022-08-31T00:44:14.352Z,9.85
2022-08-31T00:46:44.125Z,9.98
2022-08-31T00:49:15.532Z,9.98
2022-08-31T00:51:46.177Z,10.05
2022-08-31T00:54:18.160Z,9.98
2022-08-31T00:56:46.559Z,9.38
2022-08-31T00:59:15.815Z,10.05
2022-08-31T01:01:44.243Z,10.43
2022-08-31T01:04:12.795Z,10.48
2022-08-31T01:06:41.410Z,9.88
2022-08-31T01:09:10.146Z,10.40
2022-08-31T01:11:41.541Z,10.15
2022-08-31T01:14:10.914Z,10.80
2022-08-31T01:16:42.840Z,9.88
2022-08-31T01:19:17.725Z,9.80
2022-08-31T01:21:50.884Z,10.27
2022-08-31T01:24:21.223Z,9.50
2022-08-31T01:26:55.623Z,9.98
2022-08-31T01:29:24.241Z,9.90
2022-08-31T01:31:52.569Z,10.30
2022-08-31T01:34:20.881Z,9.93
2022-08-31T01:36:49.636Z,9.63
2022-08-31T01:39:18.034Z,9.65
2022-08-31T01:41:47.772Z,10.20
2022-08-31T01:44:18.536Z,10.18
2022-08-31T01:46:47.199Z,10.30
2022-08-31T01:49:16.486Z,10.40
2022-08-31T01:51:45.288Z,9.77
2022-08-31T01:54:13.850Z,9.93
2022-08-31T01:56:44.246Z,9.82
2022-08-31T02:01:44.575Z,10.10
2022-08-31T02:04:15.717Z,9.35
2022-08-31T02:06:45.908Z,9.05
2022-08-31T02:09:14.983Z,8.80
2022-08-31T02:11:43.386Z,9.90
2022-08-31T02:14:13.117Z,9.93
2022-08-31T02:16:41.706Z,9.13
2022-08-31T02:19:10.368Z,9.00
2022-08-31T02:21:38.885Z,8.93
2022-08-31T02:24:07.807Z,9.75
2022-08-31T02:26:36.178Z,10.50
2022-08-31T02:29:04.800Z,9.65
2022-08-31T02:31:34.543Z,9.43
2022-08-31T02:34:03.162Z,9.82
2022-08-31T02:36:34.808Z,9.85
2022-08-31T02:39:05.923Z,10.48
2022-08-31T02:41:34.381Z,10.25
2022-08-31T02:44:03.207Z,10.02
2022-08-31T02:46:31.630Z,9.60
2022-08-31T02:49:01.735Z,9.13
2022-08-31T02:51:30.444Z,9.68
2022-08-31T02:53:58.927Z,9.60
2022-08-31T02:56:27.227Z,9.77
2022-08-31T02:58:55.586Z,9.80
2022-08-31T03:01:24.337Z,10.55
2022-08-31T03:03:52.743Z,10.52
2022-08-31T03:06:22.765Z,9.75
2022-08-31T03:08:51.375Z,9.20
2022-08-31T03:11:20.374Z,8.77
2022-08-31T03:13:48.693Z,9.38
2022-08-31T03:16:17.091Z,9.35
2022-08-31T03:18:46.088Z,9.63
2022-08-31T03:21:14.371Z,9.48
2022-08-31T03:23:44.122Z,9.75
2022-08-31T03:26:12.439Z,9.70
2022-08-31T03:28:40.758Z,9.57
2022-08-31T03:31:09.778Z,9.52
2022-08-31T03:33:38.124Z,8.57
2022-08-31T03:36:06.713Z,9.65
2022-08-31T03:38:35.082Z,9.52
2022-08-31T03:41:04.710Z,9.23
2022-08-31T03:43:33.069Z,8.75
2022-08-31T03:46:01.394Z,9.77
2022-08-31T03:48:29.760Z,9.57
2022-08-31T03:50:58.203Z,9.02
2022-08-31T03:53:27.088Z,9.93
2022-08-31T03:56:01.063Z,9.65
2022-08-31T03:58:31.374Z,9.13
2022-08-31T04:00:59.793Z,9.52
2022-08-31T04:03:29.380Z,9.85
2022-08-31T04:05:57.665Z,9.47
2022-08-31T04:08:26.284Z,10.02
2022-08-31T04:10:54.906Z,9.30
2022-08-31T04:13:29.393Z,9.85
2022-08-31T04:16:01.831Z,9.23
2022-08-31T04:18:30.157Z,9.13
2022-08-31T04:20:58.555Z,10.00
2022-08-31T04:23:29.917Z,8.88
2022-08-31T04:25:58.853Z,10.50
2022-08-31T04:28:27.148Z,9.52
2022-08-31T04:30:55.574Z,9.63
2022-08-31T04:33:25.402Z,10.40
2022-08-31T04:35:53.775Z,10.45
2022-08-31T04:38:22.054Z,9.07
2022-08-31T04:40:52.398Z,9.45
2022-08-31T04:43:20.849Z,10.18
2022-08-31T04:45:52.616Z,9.82
2022-08-31T04:48:20.910Z,9.45
2022-08-31T04:50:50.813Z,9.57
2022-08-31T04:53:19.207Z,9.95
2022-08-31T04:55:47.571Z,9.55
2022-08-31T04:58:17.652Z,9.88
2022-08-31T05:00:45.932Z,9.93
2022-08-31T05:03:14.255Z,10.05
2022-08-31T05:05:42.875Z,9.57
2022-08-31T05:08:12.546Z,10.35
2022-08-31T05:10:41.592Z,9.45
2022-08-31T05:13:09.850Z,9.75
2022-08-31T05:15:42.589Z,10.15
2022-08-31T05:18:11.263Z,10.40
2022-08-31T05:20:40.317Z,10.02
2022-08-31T05:23:08.614Z,9.20
2022-08-31T05:25:39.972Z,10.00
2022-08-31T05:28:09.030Z,9.80
2022-08-31T05:30:37.347Z,10.10
2022-08-31T05:33:05.824Z,9.93
2022-08-31T05:35:35.477Z,9.55
2022-08-31T05:38:03.942Z,10.07
2022-08-31T05:40:32.303Z,10.40
2022-08-31T05:43:01.962Z,9.70
2022-08-31T05:45:30.266Z,11.15
2022-08-31T05:47:58.631Z,10.13
2022-08-31T05:50:26.922Z,9.88
2022-08-31T05:52:55.230Z,10.25
2022-08-31T05:55:23.510Z,9.65
2022-08-31T05:57:52.699Z,9.90
2022-08-31T06:00:22.886Z,9.70
2022-08-31T06:02:53.837Z,10.63
2022-08-31T06:05:22.586Z,9.10
2022-08-31T06:07:51.090Z,10.07
2022-08-31T06:10:20.931Z,10.77
2022-08-31T06:12:50.095Z,11.02
2022-08-31T06:15:18.428Z,10.70
2022-08-31T06:17:48.149Z,10.32
2022-08-31T06:20:18.031Z,11.00
2022-08-31T06:22:46.695Z,10.95
2022-08-31T06:25:19.337Z,10.38
2022-08-31T06:27:49.157Z,10.27
2022-08-31T06:30:19.246Z,10.90
2022-08-31T06:32:48.983Z,10.63
2022-08-31T06:35:18.521Z,11.50
2022-08-31T06:37:46.895Z,10.25
2022-08-31T06:40:15.377Z,11.02
2022-08-31T06:42:43.747Z,10.20
2022-08-31T06:45:13.596Z,10.13
2022-08-31T06:47:41.940Z,10.38
2022-08-31T06:50:12.474Z,11.20
2022-08-31T06:55:27.316Z,10.40
2022-08-31T06:57:55.678Z,11.10
2022-08-31T07:00:24.054Z,10.10
2022-08-31T07:02:57.643Z,10.13
2022-08-31T07:05:27.706Z,10.43
2022-08-31T07:07:56.027Z,9.57
2022-08-31T07:10:24.356Z,10.73
2022-08-31T07:12:52.710Z,9.93
2022-08-31T07:15:21.049Z,10.88
2022-08-31T07:17:51.747Z,9.57
2022-08-31T07:20:20.173Z,9.52
2022-08-31T07:22:49.794Z,10.95
2022-08-31T07:25:18.387Z,10.48
2022-08-31T07:27:46.941Z,9.23
2022-08-31T07:30:15.239Z,9.93
2022-08-31T07:32:43.639Z,9.82
2022-08-31T07:35:11.970Z,10.23
2022-08-31T07:37:58.325Z,9.88
2022-08-31T07:40:45.495Z,9.77
2022-08-31T07:43:14.388Z,10.23
2022-08-31T07:45:43.885Z,9.88
2022-08-31T07:48:12.367Z,10.15
2022-08-31T07:50:46.844Z,10.07
2022-08-31T07:53:15.342Z,9.63
2022-08-31T07:55:48.907Z,10.30
2022-08-31T07:58:17.714Z,9.98
2022-08-31T08:00:48.664Z,9.75
2022-08-31T08:03:17.110Z,9.95
2022-08-31T08:05:47.413Z,9.88
2022-08-31T08:08:16.861Z,9.38
2022-08-31T08:13:23.231Z,10.02
2022-08-31T08:15:52.283Z,10.00
2022-08-31T08:18:21.377Z,10.15
2022-08-31T08:20:49.959Z,9.68
2022-08-31T08:23:27.896Z,9.47
2022-08-31T08:26:01.467Z,9.65
2022-08-31T08:28:40.807Z,9.45
2022-08-31T08:31:14.502Z,10.32
2022-08-31T08:33:43.215Z,9.15
2022-08-31T08:36:11.761Z,9.23
2022-08-31T08:38:43.817Z,9.90
2022-08-31T08:41:14.819Z,9.80
2022-08-31T08:43:52.885Z,9.43
2022-08-31T08:46:34.894Z,9.48
2022-08-31T08:49:13.155Z,9.63
2022-08-31T08:51:41.634Z,10.18
2022-08-31T08:54:12.432Z,8.95
2022-08-31T08:56:47.162Z,9.82
2022-08-31T08:59:19.911Z,9.63
2022-08-31T09:01:50.725Z,9.40
2022-08-31T09:04:26.733Z,10.10
2022-08-31T09:07:02.536Z,9.88
2022-08-31T09:09:34.737Z,9.10
2022-08-31T09:12:19.037Z,9.55
2022-08-31T09:15:28.325Z,9.90
2022-08-31T09:18:00.637Z,9.77
2022-08-31T09:20:33.746Z,8.70
2022-08-31T09:23:07.878Z,9.38
2022-08-31T09:25:38.909Z,9.60
2022-08-31T09:28:08.753Z,9.35
2022-08-31T09:30:56.087Z,9.55
2022-08-31T09:33:28.095Z,8.95
2022-08-31T09:36:14.713Z,9.57
2022-08-31T09:38:45.525Z,9.30
2022-08-31T09:41:23.342Z,9.77
2022-08-31T09:43:51.845Z,9.05
2022-08-31T09:46:28.205Z,9.38
2022-08-31T09:48:58.342Z,8.23
2022-08-31T09:54:18.671Z,8.35
2022-08-31T09:56:55.473Z,7.10
2022-08-31T09:59:38.451Z,7.72
2022-08-31T10:02:12.118Z,8.65
2022-08-31T10:04:51.141Z,7.55
2022-08-31T10:07:38.063Z,7.68
2022-08-31T10:10:28.033Z,8.00
2022-08-31T10:13:01.612Z,7.97
2022-08-31T10:15:35.443Z,7.78
2022-08-31T10:18:13.807Z,8.93
2022-08-31T10:20:46.512Z,8.30
2022-08-31T10:23:20.796Z,7.93
2022-08-31T10:25:54.612Z,7.93
2022-08-31T10:28:31.796Z,7.95
2022-08-31T10:31:02.341Z,9.07
2022-08-31T10:33:56.891Z,9.07
2022-08-31T10:36:33.082Z,8.13
2022-08-31T10:39:02.256Z,7.93
2022-08-31T10:41:34.197Z,8.02
2022-08-31T10:44:07.732Z,8.10
2022-08-31T10:46:36.791Z,8.85
2022-08-31T10:49:07.443Z,8.68
2022-08-31T10:51:41.849Z,8.57
2022-08-31T10:54:24.708Z,8.65
2022-08-31T10:57:00.714Z,8.82
2022-08-31T10:59:35.207Z,9.00
2022-08-31T11:02:24.844Z,6.75
2022-08-31T11:05:01.808Z,6.07
2022-08-31T11:07:41.354Z,5.45
2022-08-31T11:10:24.920Z,5.83
2022-08-31T11:12:57.526Z,4.50
2022-08-31T11:15:51.585Z,4.57
2022-08-31T11:18:48.606Z,4.53
2022-08-31T11:21:41.428Z,4.38
2022-08-31T11:24:23.144Z,4.40
2022-08-31T11:26:54.007Z,4.75
2022-08-31T11:29:43.250Z,4.75
2022-08-31T11:32:20.042Z,5.20
2022-08-31T11:34:51.462Z,5.78
2022-08-31T11:37:54.368Z,5.03
2022-08-31T11:41:13.982Z,5.40
2022-08-31T11:43:49.052Z,5.57
2022-08-31T11:46:59.809Z,5.82
2022-08-31T11:49:46.054Z,6.07
2022-08-31T11:52:34.472Z,5.78
2022-08-31T11:55:11.864Z,6.30
2022-08-31T11:58:23.583Z,6.15
2022-08-31T12:00:58.587Z,6.80
2022-08-31T12:03:50.460Z,9.65
2022-08-31T12:07:07.543Z,6.82
2022-08-31T12:09:54.111Z,7.40
2022-08-31T12:12:33.804Z,6.72
2022-08-31T12:15:06.690Z,6.03
2022-08-31T12:17:44.367Z,6.45
2022-08-31T12:20:16.222Z,5.72
2022-08-31T12:23:31.891Z,6.07
2022-08-31T12:26:08.829Z,6.18
2022-08-31T12:28:51.850Z,6.32
2022-08-31T12:31:20.240Z,5.97
2022-08-31T12:33:57.028Z,5.90
2022-08-31T12:36:29.223Z,6.63
2022-08-31T12:39:11.211Z,6.07
2022-08-31T12:41:44.222Z,5.80
2022-08-31T12:44:20.889Z,6.28
2022-08-31T12:47:01.451Z,4.97
2022-08-31T12:49:59.039Z,4.97
2022-08-31T12:52:39.838Z,4.90
2022-08-31T12:55:24.306Z,5.10
2022-08-31T12:58:14.625Z,4.70
2022-08-31T13:00:44.649Z,4.60
2022-08-31T13:03:20.275Z,5.32
2022-08-31T13:06:05.681Z,4.93
2022-08-31T13:08:37.789Z,5.47
2022-08-31T13:11:20.784Z,5.60
2022-08-31T13:13:52.779Z,5.35
2022-08-31T13:16:22.838Z,5.97
2022-08-31T13:18:59.980Z,4.70
2022-08-31T13:21:28.303Z,5.43
2022-08-31T13:24:07.363Z,5.55
2022-08-31T13:26:38.063Z,4.95
2022-08-31T13:29:09.973Z,5.82
2022-08-31T13:31:49.819Z,6.18
2022-08-31T13:34:19.102Z,5.70
2022-08-31T13:36:52.986Z,5.78
2022-08-31T13:39:27.163Z,5.45
2022-08-31T13:41:58.220Z,6.50
2022-08-31T13:44:33.813Z,5.78
2022-08-31T13:47:05.363Z,6.00
2022-08-31T13:49:36.661Z,5.72
2022-08-31T13:52:07.549Z,5.65
2022-08-31T13:54:37.221Z,5.03
2022-08-31T13:57:22.637Z,5.50
2022-08-31T13:59:51.047Z,5.80
2022-08-31T14:02:37.195Z,5.97
2022-08-31T14:05:08.671Z,6.13
2022-08-31T14:07:54.461Z,6.10
2022-08-31T14:10:26.239Z,6.70
2022-08-31T14:12:56.653Z,6.05
2022-08-31T14:18:24.498Z,6.10
2022-08-31T14:21:22.021Z,7.10
2022-08-31T14:23:52.860Z,7.78
2022-08-31T14:28:53.529Z,7.50
2022-08-31T14:31:25.543Z,8.20
2022-08-31T14:34:08.973Z,7.82
2022-08-31T14:36:44.680Z,7.97
2022-08-31T14:39:13.427Z,7.38
2022-08-31T14:41:41.783Z,7.20
2022-08-31T14:44:10.232Z,7.43
2022-08-31T14:46:40.490Z,8.07
2022-08-31T14:49:10.969Z,9.15
2022-08-31T14:51:40.289Z,8.82
2022-08-31T14:54:09.004Z,8.50
2022-08-31T14:56:46.780Z,7.60
2022-08-31T14:59:16.822Z,7.85
2022-08-31T15:01:46.304Z,8.10
2022-08-31T15:04:18.057Z,9.33
2022-08-31T15:06:49.884Z,8.20
2022-08-31T15:09:18.542Z,8.95
2022-08-31T15:11:47.226Z,10.75
2022-08-31T15:14:15.522Z,9.60
2022-08-31T15:16:46.501Z,10.02
2022-08-31T15:19:16.628Z,9.57
2022-08-31T15:21:52.696Z,9.75
2022-08-31T15:24:27.903Z,9.32
2022-08-31T15:26:59.965Z,9.63
2022-08-31T15:29:30.384Z,9.68
2022-08-31T15:31:59.883Z,9.88
2022-08-31T15:34:31.397Z,8.30
2022-08-31T15:37:02.112Z,9.32
2022-08-31T15:39:32.621Z,9.07
2022-08-31T15:42:02.807Z,9.35
2022-08-31T15:44:33.409Z,9.80
2022-08-31T15:47:21.169Z,9.60
2022-08-31T15:49:51.785Z,8.50
2022-08-31T15:52:20.577Z,9.00
2022-08-31T15:54:50.427Z,10.23
2022-08-31T15:57:18.968Z,9.30
2022-08-31T15:59:47.278Z,10.32
2022-08-31T16:02:20.141Z,10.20
2022-08-31T16:04:51.319Z,8.93
2022-08-31T16:07:21.906Z,8.73
2022-08-31T16:09:50.184Z,8.88
2022-08-31T16:12:19.106Z,8.00
2022-08-31T16:14:51.684Z,8.27
2022-08-31T16:17:20.214Z,8.52
2022-08-31T16:19:49.985Z,8.60
2022-08-31T16:22:19.029Z,8.63
2022-08-31T16:24:51.005Z,8.63
2022-08-31T16:27:20.994Z,8.23
2022-08-31T16:29:50.822Z,8.70
2022-08-31T16:32:19.516Z,8.93
2022-08-31T16:34:49.043Z,8.32
2022-08-31T16:37:18.738Z,8.70
2022-08-31T16:39:47.929Z,8.57
2022-08-31T16:42:17.607Z,8.60
2022-08-31T16:44:48.174Z,8.45
2022-08-31T16:47:18.584Z,8.98
2022-08-31T16:49:45.995Z,7.90
2022-08-31T16:52:18.061Z,8.27
2022-08-31T16:54:50.957Z,8.35
2022-08-31T16:57:21.846Z,8.02
2022-08-31T16:59:51.199Z,8.38
2022-08-31T17:02:20.222Z,7.78
2022-08-31T17:04:52.410Z,7.82
2022-08-31T17:07:21.498Z,7.97
2022-08-31T17:09:51.243Z,8.55
2022-08-31T17:12:23.046Z,7.72
2022-08-31T17:14:52.342Z,8.40
2022-08-31T17:17:23.049Z,8.13
2022-08-31T17:19:52.105Z,8.55
2022-08-31T17:22:28.400Z,8.05
2022-08-31T17:25:04.277Z,8.18
2022-08-31T17:27:34.905Z,8.07
2022-08-31T17:30:07.158Z,8.30
2022-08-31T17:32:44.598Z,8.13
2022-08-31T17:35:18.338Z,8.25
2022-08-31T17:37:48.243Z,8.43
2022-08-31T17:40:18.114Z,7.90
2022-08-31T17:42:46.565Z,7.55
2022-08-31T17:45:15.501Z,7.85
2022-08-31T17:47:43.797Z,8.32
2022-08-31T17:50:13.939Z,7.97
2022-08-31T17:52:42.329Z,9.57
2022-08-31T17:55:10.762Z,8.98
2022-08-31T17:57:42.085Z,9.23
2022-08-31T18:00:14.257Z,8.85
2022-08-31T18:02:42.728Z,9.40
2022-08-31T18:05:12.348Z,9.00
2022-08-31T18:07:40.960Z,9.32
2022-08-31T18:10:10.783Z,9.63
2022-08-31T18:12:41.832Z,9.90
2022-08-31T18:15:11.554Z,9.80
2022-08-31T18:17:40.521Z,10.07
2022-08-31T18:20:10.681Z,11.07
2022-08-31T18:22:39.914Z,11.52
2022-08-31T18:25:08.887Z,11.75
2022-08-31T18:27:37.233Z,12.00
2022-08-31T18:30:08.617Z,11.45
2022-08-31T18:32:37.161Z,9.63
2022-08-31T18:35:14.013Z,11.48
2022-08-31T18:37:42.450Z,11.55
2022-08-31T18:40:29.043Z,11.85
2022-08-31T18:43:14.242Z,11.80
2022-08-31T18:45:48.798Z,11.65
2022-08-31T18:48:26.006Z,12.75
2022-08-31T18:50:58.801Z,13.15
2022-08-31T18:53:30.259Z,13.02
2022-08-31T18:56:05.345Z,12.77
2022-08-31T18:58:33.827Z,11.98
2022-08-31T19:01:03.903Z,13.57
2022-08-31T19:03:32.297Z,13.38
2022-08-31T19:06:00.635Z,13.68
2022-08-31T19:08:30.218Z,14.17
2022-08-31T19:10:58.892Z,13.75
2022-08-31T19:13:31.508Z,12.68
2022-08-31T19:16:05.553Z,13.50
2022-08-31T19:18:40.732Z,13.98
2022-08-31T19:21:14.594Z,13.95
2022-08-31T19:23:43.579Z,14.50
2022-08-31T19:26:11.966Z,13.93
2022-08-31T19:28:41.029Z,15.43
2022-08-31T19:31:11.614Z,15.20
2022-08-31T19:33:42.069Z,15.70
2022-08-31T19:38:40.346Z,14.77
2022-08-31T19:41:15.892Z,15.77
2022-08-31T19:43:52.015Z,15.65
2022-08-31T19:46:26.200Z,15.63
2022-08-31T19:48:59.834Z,14.35
2022-08-31T19:51:29.719Z,14.88
2022-08-31T19:53:59.226Z,15.25
2022-08-31T19:56:31.160Z,14.67
2022-08-31T19:59:00.458Z,15.15
2022-08-31T20:01:33.910Z,15.57
2022-08-31T20:04:07.456Z,15.45
2022-08-31T20:06:37.354Z,14.88
2022-08-31T20:09:06.621Z,15.73
2022-08-31T20:11:36.062Z,15.07
2022-08-31T20:14:05.274Z,15.15
2022-08-31T20:16:36.291Z,14.60
2022-08-31T20:19:06.082Z,15.13
2022-08-31T20:21:35.544Z,14.95
2022-08-31T20:24:06.406Z,15.02
2022-08-31T20:26:47.183Z,15.13
2022-08-31T20:29:20.932Z,14.50
2022-08-31T20:31:50.834Z,15.52
2022-08-31T20:34:22.878Z,13.82
2022-08-31T20:36:58.501Z,13.38
2022-08-31T20:39:30.736Z,13.48
2022-08-31T20:42:00.149Z,13.77
2022-08-31T20:44:30.713Z,15.18
2022-08-31T20:47:18.759Z,15.10
2022-08-31T20:49:53.630Z,15.48
2022-08-31T20:52:27.262Z,15.77
2022-08-31T20:55:01.848Z,15.02
2022-08-31T20:57:31.989Z,16.27
2022-08-31T21:00:03.779Z,17.50
2022-08-31T21:02:33.662Z,17.10
2022-08-31T21:05:33.840Z,18.67
2022-08-31T21:07:53.282Z,18.63
2022-08-31T21:10:36.950Z,19.23
2022-08-31T21:13:08.177Z,18.20
2022-08-31T21:15:41.337Z,19.92
2022-08-31T21:18:09.691Z,19.40
2022-08-31T21:20:39.439Z,19.90
2022-08-31T21:23:09.762Z,20.85
2022-08-31T21:25:44.947Z,21.38
2022-08-31T21:28:14.316Z,19.33
2022-08-31T21:30:42.652Z,21.30
2022-08-31T21:33:10.959Z,20.55
2022-08-31T21:35:40.640Z,19.70
2022-08-31T21:38:11.703Z,20.35
2022-08-31T21:40:47.967Z,19.33
2022-08-31T21:43:16.509Z,19.75
2022-08-31T21:45:45.046Z,20.08
2022-08-31T21:48:13.383Z,19.38
2022-08-31T21:50:44.014Z,18.83
2022-08-31T21:53:12.985Z,19.60
2022-08-31T21:55:41.301Z,19.75
2022-08-31T21:58:10.803Z,19.15
2022-08-31T22:00:42.168Z,18.67
2022-08-31T22:03:11.188Z,18.02
2022-08-31T22:05:41.592Z,18.52
2022-08-31T22:10:41.222Z,17.58
2022-08-31T22:13:11.498Z,17.88
2022-08-31T22:15:41.092Z,18.13
2022-08-31T22:18:58.145Z,17.30
2022-08-31T22:21:00.319Z,17.45
2022-08-31T22:23:30.522Z,18.30
2022-08-31T22:25:58.995Z,18.20
2022-08-31T22:28:27.600Z,19.08
2022-08-31T22:30:56.985Z,18.20
2022-08-31T22:33:25.401Z,18.20
2022-08-31T22:35:53.948Z,19.08
2022-08-31T22:38:22.504Z,19.42
2022-08-31T22:40:52.460Z,19.98
2022-08-31T22:43:20.820Z,19.88
2022-08-31T22:45:49.539Z,19.88
2022-08-31T22:48:18.383Z,20.05
2022-08-31T22:50:46.925Z,19.45
2022-08-31T22:53:15.798Z,20.75
2022-08-31T22:55:44.461Z,20.70
2022-08-31T22:58:14.269Z,20.73
2022-08-31T23:00:48.042Z,20.75
2022-08-31T23:03:16.483Z,21.10
2022-08-31T23:05:45.041Z,20.23
2022-08-31T23:08:13.877Z,22.10
2022-08-31T23:10:42.563Z,21.88
2022-08-31T23:13:10.931Z,21.48
2022-08-31T23:15:41.246Z,21.45
2022-08-31T23:18:10.537Z,22.00
2022-08-31T23:20:41.890Z,22.58
2022-08-31T23:23:10.525Z,21.92
2022-08-31T23:25:40.261Z,22.88
2022-08-31T23:28:08.761Z,23.30
2022-08-31T23:30:38.068Z,22.80
2022-08-31T23:33:07.918Z,22.75
2022-08-31T23:35:36.435Z,23.60
2022-08-31T23:38:04.853Z,24.35
2022-08-31T23:40:34.044Z,26.85
2022-08-31T23:43:02.517Z,26.02
2022-08-31T23:45:32.022Z,25.55
2022-08-31T23:48:00.353Z,25.40
2022-08-31T23:50:30.113Z,26.77
2022-08-31T23:52:58.423Z,27.88
2022-08-31T23:55:29.049Z,28.00
2022-08-31T23:57:59.313Z,25.13
